Mono Hot Springs, California
Current Conditions -  °F | °C
As of 9:55 PM on Wednesday 22 Oct 2014 (Local Time) from KMMH Reporting Station
Clear Clear  
Wind Chill: 39°   Ceiling: Unl
Heat Index: 39°   Visibility: 10mi
Dew Point: 16°   Wind: 0mph
Humidity: 39%   Direction: NA
Pressure: 30.26"   Gusts: NA
Location:  37.33°N, 119.02°W
Report Text: KMMH 230455Z AUTO 00000KT 10SM CLR 04/M09 A3026 RMK AO1
Loading
Personal Weather Stations






























Interactive Weather Map
Tropical Storm Tracking
New forecast layout! Learn more

10-Day Weather Forecast

Advertisements
Track Severe Weather on mobile